KHKY

Hickory Regional Airport

Hickory, North Carolina, USA
METAR KHKY 110253Z AUTO 00000KT 10SM CLR 02/01 A3014 RMK AO2 SLP203 T00170006 51008
Observed Flight Rules
Dec-11 @ 02:53 UTC (37 minutes ago) Visual Flight Rules
Visibility Clouds
10 miles
  • Clear skies
Temperatures Readings
Current 2°C / 36°F
Dewpoint 1°C / 34°F
Humidity 93%
Altimeter 30.14" Hg
Pressure 1020.3 hPa
Elevation 354
METAR KHKY 110253Z AUTO 00000KT 10SM CLR 02/01 A3014 RMK AO2 SLP203 T00170006 51008
Observed Flight Rules
Dec-11 @ 02:53 UTC
(37 minutes ago)
VFR
Clouds
  • Clear skies
Temperature Dewpoint
2°C / 36°F 1°C / 34°F
Humidity Altimeter Pressure
93% 30.14" Hg 1020.3 hPa